Time,TemperatureF,DewpointF,PressureIn,WindDirection,WindDirectionDegrees,WindSpeedMPH,WindSpeedGustMPH,Humidity,HourlyPrecipIn,Conditions,Clouds,dailyrainin,SoftwareType,DateUTC
2013-11-12 00:04:00,50.4,46.7,30.08,SW,225,1.7,-999.0,87,-99.99,,,0.00,Acu-Link.com,2013-11-12 08:04:00,
2013-11-12 00:20:00,50.5,46.5,30.09,SW,225,2.7,-999.0,86,-99.99,,,0.00,Acu-Link.com,2013-11-12 08:20:00,
2013-11-12 00:35:00,50.9,46.2,30.08,SW,225,2.2,-999.0,84,-99.99,,,0.00,Acu-Link.com,2013-11-12 08:35:00,
2013-11-12 00:50:00,51.1,46.1,30.08,SW,225,2.7,-999.0,83,-99.99,,,0.00,Acu-Link.com,2013-11-12 08:50:00,
2013-11-12 01:05:00,51.4,45.8,30.09,SW,225,2.2,-999.0,81,-99.99,,,0.00,Acu-Link.com,2013-11-12 09:05:00,
2013-11-12 01:20:00,51.6,45.6,30.09,SW,225,1.7,-999.0,80,-99.99,,,0.00,Acu-Link.com,2013-11-12 09:20:00,
2013-11-12 01:36:00,52.0,45.7,30.08,SW,225,2.7,-999.0,79,-99.99,,,0.00,Acu-Link.com,2013-11-12 09:36:00,
2013-11-12 01:51:00,52.2,45.6,30.09,SW,225,0.0,-999.0,78,-99.99,,,0.00,Acu-Link.com,2013-11-12 09:51:00,
2013-11-12 02:06:00,51.1,44.1,30.08,SW,225,2.2,-999.0,77,-99.99,,,0.00,Acu-Link.com,2013-11-12 10:06:00,
2013-11-12 02:21:00,50.4,43.5,30.09,SW,225,1.1,-999.0,77,-99.99,,,0.00,Acu-Link.com,2013-11-12 10:21:00,
2013-11-12 02:36:00,49.6,43.0,30.08,SW,225,0.0,-999.0,78,-99.99,,,0.00,Acu-Link.com,2013-11-12 10:36:00,
2013-11-12 02:52:00,49.5,43.3,30.07,SW,225,0.0,-999.0,79,-99.99,,,0.00,Acu-Link.com,2013-11-12 10:52:00,
2013-11-12 03:07:00,49.6,43.4,30.08,SW,225,0.0,-999.0,79,-99.99,,,0.00,Acu-Link.com,2013-11-12 11:07:00,
2013-11-12 03:22:00,49.8,43.9,30.08,SW,225,0.0,-999.0,80,-99.99,,,0.00,Acu-Link.com,2013-11-12 11:22:00,
2013-11-12 03:37:00,49.8,43.9,30.08,SW,225,1.7,-999.0,80,-99.99,,,0.00,Acu-Link.com,2013-11-12 11:37:00,
2013-11-12 03:53:00,49.6,43.7,30.08,SW,225,1.1,-999.0,80,-99.99,,,0.00,Acu-Link.com,2013-11-12 11:53:00,
2013-11-12 04:08:00,49.8,43.9,30.08,SW,225,0.0,-999.0,80,-99.99,,,0.00,Acu-Link.com,2013-11-12 12:08:00,
2013-11-12 04:23:00,50.0,44.1,30.09,SW,225,0.0,-999.0,80,-99.99,,,0.00,Acu-Link.com,2013-11-12 12:23:00,
2013-11-12 04:38:00,51.1,44.8,30.10,SW,225,0.0,-999.0,79,-99.99,,,0.00,Acu-Link.com,2013-11-12 12:38:00,
2013-11-12 04:53:00,52.7,46.4,30.12,SW,225,0.0,-999.0,79,-99.99,,,0.00,Acu-Link.com,2013-11-12 12:53:00,
2013-11-12 05:09:00,53.2,46.9,30.12,SW,225,2.7,-999.0,79,-99.99,,,0.00,Acu-Link.com,2013-11-12 13:09:00,
2013-11-12 05:24:00,53.2,46.9,30.13,SW,225,0.0,-999.0,79,-99.99,,,0.00,Acu-Link.com,2013-11-12 13:24:00,
2013-11-12 05:39:00,53.1,46.8,30.13,SW,225,1.7,-999.0,79,-99.99,,,0.00,Acu-Link.com,2013-11-12 13:39:00,
2013-11-12 05:54:00,53.1,46.8,30.14,SW,225,1.7,-999.0,79,-99.99,,,0.00,Acu-Link.com,2013-11-12 13:54:00,
2013-11-12 06:09:00,52.7,46.4,30.12,SW,225,1.1,-999.0,79,-99.99,,,0.00,Acu-Link.com,2013-11-12 14:09:00,
2013-11-12 06:25:00,52.7,46.7,30.14,SW,225,1.7,-999.0,80,-99.99,,,0.00,Acu-Link.com,2013-11-12 14:25:00,
2013-11-12 06:40:00,53.1,47.8,30.14,SW,225,1.7,-999.0,82,-99.99,,,0.00,Acu-Link.com,2013-11-12 14:40:00,
2013-11-12 06:55:00,53.4,48.4,30.15,SW,225,1.7,-999.0,83,-99.99,,,0.00,Acu-Link.com,2013-11-12 14:55:00,
2013-11-12 07:10:00,54.0,49.0,30.14,SW,225,0.0,-999.0,83,-99.99,,,0.00,Acu-Link.com,2013-11-12 15:10:00,
2013-11-12 07:25:00,54.7,49.6,30.14,SW,225,0.0,-999.0,83,-99.99,,,0.00,Acu-Link.com,2013-11-12 15:25:00,
2013-11-12 07:41:00,55.6,50.5,30.15,SW,225,2.2,-999.0,83,-99.99,,,0.00,Acu-Link.com,2013-11-12 15:41:00,
2013-11-12 07:56:00,56.7,51.6,30.14,SW,225,1.7,-999.0,83,-99.99,,,0.00,Acu-Link.com,2013-11-12 15:56:00,
2013-11-12 08:11:00,57.7,52.6,30.15,SW,225,1.7,-999.0,83,-99.99,,,0.00,Acu-Link.com,2013-11-12 16:11:00,
2013-11-12 08:26:00,59.2,53.4,30.15,SW,225,2.2,-999.0,81,-99.99,,,0.00,Acu-Link.com,2013-11-12 16:26:00,
2013-11-12 08:42:00,60.8,54.2,30.14,SW,225,0.0,-999.0,79,-99.99,,,0.00,Acu-Link.com,2013-11-12 16:42:00,
2013-11-12 08:57:00,62.4,55.1,30.15,SW,225,0.0,-999.0,77,-99.99,,,0.00,Acu-Link.com,2013-11-12 16:57:00,
2013-11-12 09:12:00,64.4,56.3,30.15,SW,225,0.0,-999.0,75,-99.99,,,0.00,Acu-Link.com,2013-11-12 17:12:00,
2013-11-12 09:27:00,66.0,57.1,30.16,SW,225,1.7,-999.0,73,-99.99,,,0.00,Acu-Link.com,2013-11-12 17:27:00,
2013-11-12 09:42:00,67.1,57.4,30.15,SW,225,0.0,-999.0,71,-99.99,,,0.00,Acu-Link.com,2013-11-12 17:42:00,
2013-11-12 09:58:00,65.3,55.3,30.15,SW,225,2.2,-999.0,70,-99.99,,,0.00,Acu-Link.com,2013-11-12 17:58:00,
2013-11-12 10:13:00,66.0,55.9,30.15,SW,225,0.0,-999.0,70,-99.99,,,0.00,Acu-Link.com,2013-11-12 18:13:00,
2013-11-12 10:28:00,66.9,56.0,30.14,SW,225,1.7,-999.0,68,-99.99,,,0.00,Acu-Link.com,2013-11-12 18:28:00,
2013-11-12 10:43:00,68.7,57.3,30.13,SW,225,1.1,-999.0,67,-99.99,,,0.00,Acu-Link.com,2013-11-12 18:43:00,
2013-11-12 10:58:00,70.2,58.3,30.13,SW,225,0.0,-999.0,66,-99.99,,,0.00,Acu-Link.com,2013-11-12 18:58:00,
2013-11-12 11:14:00,72.3,59.4,30.12,SW,225,0.0,-999.0,64,-99.99,,,0.00,Acu-Link.com,2013-11-12 19:14:00,
2013-11-12 11:29:00,73.0,59.2,30.11,SW,225,0.0,-999.0,62,-99.99,,,0.00,Acu-Link.com,2013-11-12 19:29:00,
2013-11-12 11:44:00,73.0,58.7,30.10,NNE,22,1.7,-999.0,61,-99.99,,,0.00,Acu-Link.com,2013-11-12 19:44:00,
2013-11-12 11:59:00,74.7,59.4,30.09,SE,135,1.7,-999.0,59,-99.99,,,0.00,Acu-Link.com,2013-11-12 19:59:00,
2013-11-12 12:14:00,74.3,58.1,30.08,NNE,22,0.0,-999.0,57,-99.99,,,0.00,Acu-Link.com,2013-11-12 20:14:00,
2013-11-12 12:30:00,75.4,58.6,30.08,NNE,22,0.0,-999.0,56,-99.99,,,0.00,Acu-Link.com,2013-11-12 20:30:00,
2013-11-12 12:45:00,76.1,58.7,30.07,NNE,22,0.0,-999.0,55,-99.99,,,0.00,Acu-Link.com,2013-11-12 20:45:00,
2013-11-12 13:00:00,75.2,57.9,30.07,SSE,157,2.7,-999.0,55,-99.99,,,0.00,Acu-Link.com,2013-11-12 21:00:00,
2013-11-12 13:15:00,74.7,57.4,30.06,South,180,3.2,-999.0,55,-99.99,,,0.00,Acu-Link.com,2013-11-12 21:15:00,
2013-11-12 13:30:00,71.4,54.9,30.06,SSW,202,4.2,-999.0,56,-99.99,,,0.00,Acu-Link.com,2013-11-12 21:30:00,
2013-11-12 13:46:00,71.6,55.5,30.04,SSW,202,3.7,-999.0,57,-99.99,,,0.00,Acu-Link.com,2013-11-12 21:46:00,
2013-11-12 14:01:00,72.7,57.1,30.05,WSW,247,2.2,-999.0,58,-99.99,,,0.00,Acu-Link.com,2013-11-12 22:01:00,
2013-11-12 14:16:00,72.0,56.4,30.05,SE,135,3.7,-999.0,58,-99.99,,,0.00,Acu-Link.com,2013-11-12 22:16:00,
2013-11-12 14:31:00,72.0,55.9,30.05,SW,225,3.7,-999.0,57,-99.99,,,0.00,Acu-Link.com,2013-11-12 22:31:00,
2013-11-12 14:47:00,72.0,55.9,30.06,South,180,3.2,-999.0,57,-99.99,,,0.00,Acu-Link.com,2013-11-12 22:47:00,
2013-11-12 15:02:00,72.0,55.9,30.06,SW,225,0.0,-999.0,57,-99.99,,,0.00,Acu-Link.com,2013-11-12 23:02:00,
2013-11-12 15:17:00,70.9,54.9,30.05,SW,225,2.2,-999.0,57,-99.99,,,0.00,Acu-Link.com,2013-11-12 23:17:00,
2013-11-12 15:32:00,71.8,55.7,30.05,SW,225,0.0,-999.0,57,-99.99,,,0.00,Acu-Link.com,2013-11-12 23:32:00,
2013-11-12 15:47:00,70.9,54.9,30.05,SW,225,1.1,-999.0,57,-99.99,,,0.00,Acu-Link.com,2013-11-12 23:47:00,
2013-11-12 16:03:00,70.9,54.9,30.06,SW,225,0.0,-999.0,57,-99.99,,,0.00,Acu-Link.com,2013-11-13 00:03:00,
2013-11-12 16:18:00,69.8,53.9,30.05,SW,225,0.0,-999.0,57,-99.99,,,0.00,Acu-Link.com,2013-11-13 00:18:00,
2013-11-12 16:33:00,68.0,52.2,30.06,SW,225,1.7,-999.0,57,-99.99,,,0.00,Acu-Link.com,2013-11-13 00:33:00,
2013-11-12 16:48:00,69.1,54.6,30.06,SW,225,0.0,-999.0,60,-99.99,,,0.00,Acu-Link.com,2013-11-13 00:48:00,
2013-11-12 17:03:00,66.7,52.4,30.07,SW,225,0.0,-999.0,60,-99.99,,,0.00,Acu-Link.com,2013-11-13 01:03:00,
2013-11-12 17:19:00,65.1,52.6,30.06,SW,225,0.0,-999.0,64,-99.99,,,0.00,Acu-Link.com,2013-11-13 01:19:00,
2013-11-12 17:34:00,62.8,52.1,30.06,SW,225,1.7,-999.0,68,-99.99,,,0.00,Acu-Link.com,2013-11-13 01:34:00,
2013-11-12 17:49:00,61.3,51.4,30.06,SW,225,2.2,-999.0,70,-99.99,,,0.00,Acu-Link.com,2013-11-13 01:49:00,
2013-11-12 18:04:00,60.1,51.0,30.06,SW,225,0.0,-999.0,72,-99.99,,,0.00,Acu-Link.com,2013-11-13 02:04:00,
2013-11-12 18:19:00,58.5,50.2,30.06,SW,225,1.1,-999.0,74,-99.99,,,0.00,Acu-Link.com,2013-11-13 02:19:00,
2013-11-12 18:35:00,57.0,49.5,30.06,SW,225,1.7,-999.0,76,-99.99,,,0.00,Acu-Link.com,2013-11-13 02:35:00,
2013-11-12 18:50:00,56.3,49.9,30.07,SW,225,0.0,-999.0,79,-99.99,,,0.00,Acu-Link.com,2013-11-13 02:50:00,
2013-11-12 19:05:00,55.8,49.7,30.07,SW,225,0.0,-999.0,80,-99.99,,,0.00,Acu-Link.com,2013-11-13 03:05:00,
2013-11-12 19:20:00,55.0,49.3,30.08,SW,225,0.0,-999.0,81,-99.99,,,0.00,Acu-Link.com,2013-11-13 03:20:00,
2013-11-12 19:35:00,54.3,48.6,30.07,SW,225,1.1,-999.0,81,-99.99,,,0.00,Acu-Link.com,2013-11-13 03:35:00,
2013-11-12 19:51:00,53.8,48.4,30.07,SW,225,1.7,-999.0,82,-99.99,,,0.00,Acu-Link.com,2013-11-13 03:51:00,
2013-11-12 20:06:00,53.6,48.2,30.07,SW,225,0.0,-999.0,82,-99.99,,,0.00,Acu-Link.com,2013-11-13 04:06:00,
2013-11-12 20:21:00,53.6,48.6,30.07,SW,225,2.2,-999.0,83,-99.99,,,0.00,Acu-Link.com,2013-11-13 04:21:00,
2013-11-12 20:36:00,53.8,48.8,30.07,SW,225,1.7,-999.0,83,-99.99,,,0.00,Acu-Link.com,2013-11-13 04:36:00,
2013-11-12 20:52:00,53.8,48.8,30.07,SW,225,2.2,-999.0,83,-99.99,,,0.00,Acu-Link.com,2013-11-13 04:52:00,
2013-11-12 21:07:00,54.1,49.1,30.05,SW,225,1.7,-999.0,83,-99.99,,,0.00,Acu-Link.com,2013-11-13 05:07:00,
2013-11-12 21:22:00,55.9,49.8,30.05,SW,225,2.7,-999.0,80,-99.99,,,0.00,Acu-Link.com,2013-11-13 05:22:00,
2013-11-12 21:37:00,55.8,49.0,30.04,SW,225,1.7,-999.0,78,-99.99,,,0.00,Acu-Link.com,2013-11-13 05:37:00,
2013-11-12 21:52:00,54.5,47.1,30.05,SW,225,1.7,-999.0,76,-99.99,,,0.00,Acu-Link.com,2013-11-13 05:52:00,
2013-11-12 22:08:00,52.9,45.5,30.04,SW,225,1.7,-999.0,76,-99.99,,,0.00,Acu-Link.com,2013-11-13 06:08:00,
2013-11-12 22:23:00,52.7,45.0,30.05,SW,225,2.2,-999.0,75,-99.99,,,0.00,Acu-Link.com,2013-11-13 06:23:00,
2013-11-12 22:38:00,52.0,44.0,30.05,SW,225,1.7,-999.0,74,-99.99,,,0.00,Acu-Link.com,2013-11-13 06:38:00,
2013-11-12 22:53:00,52.2,44.2,30.06,SW,225,2.7,-999.0,74,-99.99,,,0.00,Acu-Link.com,2013-11-13 06:53:00,
2013-11-12 23:08:00,52.7,43.6,30.07,SW,225,1.7,-999.0,71,-99.99,,,0.00,Acu-Link.com,2013-11-13 07:08:00,
2013-11-12 23:24:00,52.7,42.8,30.06,SW,225,1.7,-999.0,69,-99.99,,,0.00,Acu-Link.com,2013-11-13 07:24:00,
2013-11-12 23:39:00,52.7,42.1,30.06,SW,225,1.7,-999.0,67,-99.99,,,0.00,Acu-Link.com,2013-11-13 07:39:00,
2013-11-12 23:54:00,52.3,41.3,30.05,SW,225,1.1,-999.0,66,-99.99,,,0.00,Acu-Link.com,2013-11-13 07:54:00,